Time;durP1;ratioP1;P1;durP2;ratioP2;P2;SDS_P1;SDS_P2;PMS_P1;PMS_P2;Temp;Humidity;BMP_temperature;BMP_pressure;BME280_temperature;BME280_humidity;BME280_pressure;Samples;Min_cycle;Max_cycle;Signal;HPM_P1;HPM_P2
2024/02/24 00:00:15;;;;;;;1.73;0.90;;;20.20;59.60;;;;;;5096035;28;20440;-82
2024/02/24 00:02:42;;;;;;;1.50;0.80;;;20.20;59.60;;;;;;5096354;28;20923;-82
2024/02/24 00:05:10;;;;;;;1.60;0.83;;;20.10;59.50;;;;;;5096354;28;20522;-82
2024/02/24 00:07:37;;;;;;;2.70;1.13;;;20.10;59.50;;;;;;5096121;28;20447;-83
2024/02/24 00:10:04;;;;;;;1.80;0.73;;;20.20;59.60;;;;;;5096253;28;20768;-83
2024/02/24 00:12:31;;;;;;;1.40;0.80;;;20.10;59.50;;;;;;5096135;28;20439;-90
2024/02/24 00:14:58;;;;;;;1.50;0.70;;;20.20;59.60;;;;;;5096374;28;20431;-82
2024/02/24 00:17:26;;;;;;;1.50;0.70;;;20.20;59.50;;;;;;5096212;28;20435;-82
2024/02/24 00:19:52;;;;;;;1.47;0.73;;;20.10;59.50;;;;;;5096212;28;20516;-82
2024/02/24 00:22:19;;;;;;;1.50;0.70;;;20.10;59.50;;;;;;5095868;28;20562;-82
2024/02/24 00:24:46;;;;;;;2.07;1.00;;;20.10;59.50;;;;;;5095794;28;20284;-83
2024/02/24 00:27:13;;;;;;;1.40;0.77;;;20.20;59.60;;;;;;5095820;28;20454;-82
2024/02/24 00:29:40;;;;;;;2.13;0.87;;;20.10;59.50;;;;;;5095970;28;20431;-83
2024/02/24 00:32:07;;;;;;;1.47;0.77;;;20.10;59.50;;;;;;5095627;28;20563;-90
2024/02/24 00:34:36;;;;;;;1.73;0.90;;;20.10;59.50;;;;;;5095805;28;20518;-84
2024/02/24 00:37:02;;;;;;;1.40;0.70;;;20.20;59.60;;;;;;5095910;28;20431;-83
2024/02/24 00:39:30;;;;;;;1.40;0.80;;;20.10;59.50;;;;;;5095714;28;20790;-82
2024/02/24 00:41:57;;;;;;;1.50;0.80;;;20.10;59.50;;;;;;5095739;28;20593;-82
2024/02/24 00:44:24;;;;;;;1.60;0.80;;;20.10;59.50;;;;;;5095560;28;20444;-82
2024/02/24 00:46:51;;;;;;;1.57;0.70;;;20.10;59.50;;;;;;5095388;28;20442;-82
2024/02/24 00:49:17;;;;;;;1.40;0.80;;;20.10;59.50;;;;;;5095217;28;20438;-81
2024/02/24 00:51:46;;;;;;;2.00;1.00;;;20.10;59.50;;;;;;5095110;28;20442;-82
2024/02/24 00:54:12;;;;;;;1.50;0.77;;;20.10;59.50;;;;;;5095156;28;20954;-81
2024/02/24 00:56:39;;;;;;;1.83;0.97;;;20.10;59.50;;;;;;5095232;28;20431;-81
2024/02/24 00:59:06;;;;;;;1.50;0.80;;;20.10;59.50;;;;;;5095212;28;20431;-81
2024/02/24 01:01:33;;;;;;;1.33;0.67;;;20.10;59.50;;;;;;5095024;28;20485;-82
2024/02/24 01:04:01;;;;;;;1.83;0.80;;;20.10;59.50;;;;;;5095159;28;20579;-81
2024/02/24 01:06:28;;;;;;;1.60;0.80;;;20.10;59.50;;;;;;5095143;28;20427;-81
2024/02/24 01:08:56;;;;;;;1.50;0.80;;;20.10;59.50;;;;;;5095221;28;20527;-82
2024/02/24 01:11:23;;;;;;;1.97;0.80;;;20.10;59.50;;;;;;5093838;28;20431;-82
2024/02/24 01:13:49;;;;;;;1.80;0.90;;;20.10;59.50;;;;;;5094804;28;20531;-81
2024/02/24 01:16:16;;;;;;;1.40;0.73;;;20.10;59.50;;;;;;5095197;28;20942;-81
2024/02/24 01:18:43;;;;;;;1.50;0.80;;;20.10;59.50;;;;;;5095371;28;20489;-82
2024/02/24 01:21:10;;;;;;;1.60;0.83;;;20.10;59.50;;;;;;5094799;28;20434;-82
2024/02/24 01:23:39;;;;;;;1.40;0.70;;;20.10;59.50;;;;;;5094756;28;20895;-81
2024/02/24 01:26:07;;;;;;;1.40;0.70;;;20.10;59.50;;;;;;5094897;28;20443;-81
2024/02/24 01:28:36;;;;;;;1.60;0.93;;;20.10;59.50;;;;;;5097541;28;20531;-81
2024/02/24 01:31:03;;;;;;;1.50;0.70;;;20.10;59.50;;;;;;5095403;28;21125;-82
2024/02/24 01:33:30;;;;;;;1.40;0.80;;;20.00;59.50;;;;;;5094329;28;20465;-82
2024/02/24 01:35:58;;;;;;;1.40;0.70;;;20.00;59.50;;;;;;5094555;28;20526;-82
2024/02/24 01:38:25;;;;;;;1.50;0.80;;;20.10;59.60;;;;;;5094531;28;20964;-82
2024/02/24 01:40:51;;;;;;;2.30;0.83;;;20.10;59.50;;;;;;5094199;28;20523;-82
2024/02/24 01:43:28;;;;;;;1.50;0.77;;;20.00;59.50;;;;;;5094333;28;20487;-82
2024/02/24 01:45:56;;;;;;;1.60;0.90;;;20.10;59.50;;;;;;5094305;28;20522;-82
2024/02/24 01:48:24;;;;;;;2.80;1.00;;;20.10;60.10;;;;;;5094366;28;20435;-82
2024/02/24 01:50:51;;;;;;;1.40;0.70;;;20.10;59.50;;;;;;5094036;28;20449;-82
2024/02/24 01:53:19;;;;;;;1.73;0.90;;;20.00;59.50;;;;;;5094206;28;20442;-83
2024/02/24 01:55:46;;;;;;;1.50;0.73;;;20.00;59.50;;;;;;5094079;28;20442;-82
2024/02/24 01:58:15;;;;;;;2.17;0.80;;;20.00;59.50;;;;;;5093947;28;20518;-83
2024/02/24 02:00:43;;;;;;;1.60;0.90;;;20.00;59.60;;;;;;5094130;28;20538;-82
2024/02/24 02:03:10;;;;;;;1.80;0.77;;;20.00;59.50;;;;;;5093773;28;20482;-82
2024/02/24 02:05:37;;;;;;;1.50;0.70;;;20.00;59.40;;;;;;5093858;28;20436;-85
2024/02/24 02:08:04;;;;;;;1.40;0.77;;;20.10;59.50;;;;;;5093988;28;20530;-82
2024/02/24 02:10:44;;;;;;;1.60;0.70;;;20.00;59.40;;;;;;5093867;28;20442;-82
2024/02/24 02:13:11;;;;;;;1.70;0.70;;;20.00;59.40;;;;;;5094209;28;20536;-82
2024/02/24 02:15:38;;;;;;;1.50;0.90;;;20.00;59.50;;;;;;5093893;28;20463;-82
2024/02/24 02:18:06;;;;;;;1.50;0.80;;;20.00;59.50;;;;;;5093858;28;20519;-82
2024/02/24 02:20:34;;;;;;;1.50;0.70;;;20.00;59.40;;;;;;5093712;28;20436;-82
2024/02/24 02:23:02;;;;;;;1.40;0.70;;;20.00;60.00;;;;;;5093276;28;20573;-82
2024/02/24 02:25:29;;;;;;;1.40;0.70;;;20.00;59.40;;;;;;5093501;28;21029;-82
2024/02/24 02:27:56;;;;;;;1.50;0.83;;;20.00;59.40;;;;;;5093863;28;20462;-82
2024/02/24 02:30:23;;;;;;;1.50;0.70;;;20.00;59.40;;;;;;5093485;28;20467;-82
2024/02/24 02:32:50;;;;;;;1.60;0.80;;;20.00;59.50;;;;;;5093549;28;20958;-88
2024/02/24 02:35:16;;;;;;;1.33;0.70;;;20.00;59.40;;;;;;5093874;28;20470;-81
2024/02/24 02:37:44;;;;;;;1.40;0.70;;;20.00;59.40;;;;;;5093735;28;20523;-81
2024/02/24 02:40:12;;;;;;;1.60;0.90;;;20.00;59.40;;;;;;5093779;28;20459;-83
2024/02/24 02:42:39;;;;;;;1.60;0.80;;;20.00;59.40;;;;;;5093721;28;20558;-83
2024/02/24 02:45:07;;;;;;;1.43;0.73;;;20.00;59.50;;;;;;5093322;28;20431;-83
2024/02/24 02:47:36;;;;;;;1.50;0.70;;;20.00;60.00;;;;;;5093361;28;20554;-82
2024/02/24 02:50:04;;;;;;;1.70;0.80;;;20.00;59.40;;;;;;5107489;28;20440;-82
2024/02/24 02:52:31;;;;;;;1.57;0.83;;;20.00;59.40;;;;;;5113857;28;20455;-82
2024/02/24 02:54:58;;;;;;;1.50;0.90;;;20.00;59.40;;;;;;5103119;28;20514;-82
2024/02/24 02:57:26;;;;;;;1.43;0.80;;;20.00;59.40;;;;;;5093368;28;20945;-82
2024/02/24 02:59:53;;;;;;;1.50;0.77;;;20.00;59.40;;;;;;5093534;28;20432;-82
2024/02/24 03:02:20;;;;;;;1.40;0.80;;;20.00;59.50;;;;;;5093120;28;20858;-83
2024/02/24 03:04:46;;;;;;;1.50;0.70;;;20.00;59.40;;;;;;5093135;28;20436;-82
2024/02/24 03:07:13;;;;;;;1.50;0.70;;;19.90;59.30;;;;;;5093217;28;20450;-82
2024/02/24 03:09:40;;;;;;;1.40;0.60;;;20.00;59.40;;;;;;5093277;28;20918;-82
2024/02/24 03:12:07;;;;;;;1.50;0.73;;;19.90;59.30;;;;;;5093220;28;20445;-81
2024/02/24 03:14:35;;;;;;;1.60;0.90;;;20.00;59.40;;;;;;5093225;28;20506;-81
2024/02/24 03:17:02;;;;;;;1.50;0.80;;;20.00;59.40;;;;;;5093044;28;20519;-81
2024/02/24 03:19:29;;;;;;;1.60;0.80;;;19.90;59.30;;;;;;5093184;28;20439;-81
2024/02/24 03:21:57;;;;;;;1.60;0.93;;;19.90;59.30;;;;;;5093060;28;20431;-82
2024/02/24 03:24:24;;;;;;;1.50;0.80;;;19.90;59.30;;;;;;5092867;28;20515;-81
2024/02/24 03:26:51;;;;;;;1.50;0.70;;;19.90;59.30;;;;;;5093078;28;20436;-81
2024/02/24 03:29:19;;;;;;;6.03;1.40;;;19.90;59.30;;;;;;5093121;28;20453;-82
2024/02/24 03:31:47;;;;;;;1.57;0.93;;;19.90;59.30;;;;;;5092580;28;20479;-82
2024/02/24 03:34:14;;;;;;;1.50;0.70;;;19.90;59.30;;;;;;5093866;28;20438;-81
2024/02/24 03:36:41;;;;;;;1.40;0.70;;;19.90;59.30;;;;;;5096818;28;20473;-81
2024/02/24 03:39:08;;;;;;;1.40;0.70;;;20.00;59.40;;;;;;5096735;28;20443;-81
2024/02/24 03:41:35;;;;;;;1.40;0.70;;;19.90;59.30;;;;;;5096687;28;20496;-82
2024/02/24 03:44:02;;;;;;;1.40;0.70;;;19.90;59.30;;;;;;5096622;28;20482;-82
2024/02/24 03:46:29;;;;;;;1.50;0.70;;;19.90;59.30;;;;;;5096765;28;20522;-82
2024/02/24 03:48:59;;;;;;;1.60;0.70;;;19.90;59.30;;;;;;5096495;28;20431;-81
2024/02/24 03:51:26;;;;;;;1.60;0.90;;;20.00;59.40;;;;;;5096597;28;20443;-81
2024/02/24 03:53:53;;;;;;;1.50;0.80;;;19.90;59.30;;;;;;5096501;28;20956;-81
2024/02/24 03:56:20;;;;;;;1.60;0.80;;;19.90;59.30;;;;;;5096571;28;20439;-82
2024/02/24 03:58:46;;;;;;;1.40;0.70;;;19.90;59.30;;;;;;5096480;28;20946;-81
2024/02/24 04:01:13;;;;;;;1.70;0.93;;;19.90;59.30;;;;;;5096232;28;20442;-82
2024/02/24 04:03:40;;;;;;;1.50;0.90;;;19.90;59.30;;;;;;5096180;28;20486;-82
2024/02/24 04:06:08;;;;;;;1.50;0.80;;;19.90;59.30;;;;;;5096262;28;20442;-81
2024/02/24 04:08:36;;;;;;;1.47;0.87;;;19.90;59.30;;;;;;5096282;28;20441;-82
2024/02/24 04:11:03;;;;;;;1.50;0.70;;;19.90;59.30;;;;;;5096092;28;20471;-82
2024/02/24 04:13:30;;;;;;;1.50;0.73;;;19.90;59.30;;;;;;5096144;28;20861;-82
2024/02/24 04:15:56;;;;;;;1.40;0.70;;;19.90;59.30;;;;;;5096035;28;20439;-81
2024/02/24 04:18:23;;;;;;;1.40;0.70;;;19.90;59.30;;;;;;5096226;28;20989;-80
2024/02/24 04:20:50;;;;;;;1.40;0.70;;;19.90;59.30;;;;;;5096625;28;20518;-81
2024/02/24 04:23:21;;;;;;;1.40;0.70;;;19.90;59.30;;;;;;5096928;28;20475;-82
2024/02/24 04:25:47;;;;;;;1.30;0.60;;;19.90;59.30;;;;;;5096087;28;20423;-81
2024/02/24 04:28:14;;;;;;;1.43;0.70;;;19.90;59.30;;;;;;5095844;28;20428;-81
2024/02/24 04:30:41;;;;;;;1.37;0.60;;;19.90;59.30;;;;;;5095570;28;20894;-81
2024/02/24 04:33:08;;;;;;;1.50;0.80;;;19.90;59.30;;;;;;5095773;28;20989;-81
2024/02/24 04:35:35;;;;;;;1.60;0.80;;;19.90;59.30;;;;;;5095733;28;20428;-82
2024/02/24 04:38:05;;;;;;;1.40;0.80;;;19.90;59.30;;;;;;5095681;28;20786;-85
2024/02/24 04:40:35;;;;;;;1.40;0.73;;;19.90;59.30;;;;;;5095800;28;20518;-81
2024/02/24 04:43:02;;;;;;;1.40;0.70;;;19.90;59.30;;;;;;5095657;28;20986;-82
2024/02/24 04:45:28;;;;;;;1.40;0.60;;;19.90;59.30;;;;;;5095263;28;20443;-82
2024/02/24 04:47:55;;;;;;;1.80;0.70;;;19.90;59.30;;;;;;5095581;28;20771;-81
2024/02/24 04:50:22;;;;;;;1.40;0.70;;;19.90;59.30;;;;;;5095557;28;20443;-82
2024/02/24 04:52:49;;;;;;;1.53;0.80;;;19.90;59.30;;;;;;5095261;28;20949;-81
2024/02/24 04:55:16;;;;;;;1.40;0.70;;;19.90;59.30;;;;;;5095508;28;20436;-82
2024/02/24 04:57:44;;;;;;;2.47;0.80;;;19.90;59.30;;;;;;5095588;28;20523;-81
2024/02/24 05:00:12;;;;;;;1.40;0.70;;;19.80;59.20;;;;;;5095139;28;20926;-81
2024/02/24 05:02:39;;;;;;;1.70;0.73;;;19.80;59.20;;;;;;5095184;28;20448;-88
2024/02/24 05:05:07;;;;;;;1.37;0.70;;;19.90;59.30;;;;;;5094970;28;20491;-82
2024/02/24 05:07:34;;;;;;;1.57;0.80;;;19.90;59.30;;;;;;5095136;28;20479;-81
2024/02/24 05:10:01;;;;;;;1.30;0.70;;;19.80;59.20;;;;;;5095150;28;20462;-82
2024/02/24 05:12:27;;;;;;;1.40;0.70;;;19.80;59.20;;;;;;5094953;28;20428;-81
2024/02/24 05:14:55;;;;;;;1.43;0.70;;;19.80;59.20;;;;;;5095248;28;20869;-81
2024/02/24 05:17:22;;;;;;;1.60;0.80;;;19.80;59.20;;;;;;5094864;28;20445;-85
2024/02/24 05:19:49;;;;;;;1.40;0.70;;;19.80;59.20;;;;;;5094952;28;20934;-81
2024/02/24 05:22:16;;;;;;;1.73;0.90;;;19.80;59.20;;;;;;5094918;28;20526;-81
2024/02/24 05:24:43;;;;;;;1.70;0.70;;;19.80;59.20;;;;;;5094805;28;20509;-81
2024/02/24 05:27:10;;;;;;;1.40;0.70;;;19.80;59.20;;;;;;5095043;28;20439;-82
2024/02/24 05:29:36;;;;;;;1.60;0.80;;;19.80;59.20;;;;;;5095010;28;20432;-82
2024/02/24 05:32:05;;;;;;;1.40;0.70;;;19.80;59.20;;;;;;5094343;28;20894;-81
2024/02/24 05:34:32;;;;;;;1.50;0.70;;;19.80;59.20;;;;;;5094655;28;20535;-82
2024/02/24 05:36:59;;;;;;;1.40;0.63;;;19.80;59.20;;;;;;5094833;28;20439;-83
2024/02/24 05:39:25;;;;;;;1.50;0.70;;;19.80;59.20;;;;;;5094804;28;20432;-81
2024/02/24 05:41:53;;;;;;;1.40;0.70;;;19.80;59.20;;;;;;5094556;28;20793;-82
2024/02/24 05:44:20;;;;;;;1.40;0.73;;;19.80;59.20;;;;;;5094379;28;21072;-82
2024/02/24 05:46:47;;;;;;;1.40;0.60;;;19.80;59.20;;;;;;5094395;28;20442;-82
2024/02/24 05:49:15;;;;;;;3.30;1.10;;;19.80;59.20;;;;;;5094685;28;20918;-81
2024/02/24 05:51:43;;;;;;;1.30;0.63;;;19.80;59.20;;;;;;5095331;28;20446;-81
2024/02/24 05:54:10;;;;;;;1.40;0.73;;;19.80;59.20;;;;;;5115545;28;20466;-82
2024/02/24 05:56:37;;;;;;;2.60;0.70;;;19.80;59.20;;;;;;5116622;28;20499;-82
2024/02/24 05:59:06;;;;;;;1.50;0.80;;;19.80;59.20;;;;;;5096438;28;20427;-82
2024/02/24 06:01:33;;;;;;;2.60;0.70;;;19.80;59.20;;;;;;5094534;28;20508;-82
2024/02/24 06:04:00;;;;;;;1.40;0.70;;;19.70;59.70;;;;;;5096025;28;20475;-82
2024/02/24 06:06:28;;;;;;;1.30;0.70;;;19.80;59.20;;;;;;5095054;28;20538;-82
2024/02/24 06:08:55;;;;;;;1.47;0.67;;;19.80;59.20;;;;;;5096274;28;20510;-82
2024/02/24 06:11:22;;;;;;;1.70;0.90;;;19.80;59.30;;;;;;5095897;28;20439;-82
2024/02/24 06:13:52;;;;;;;1.40;0.70;;;19.80;59.30;;;;;;5095569;28;20440;-82
2024/02/24 06:16:19;;;;;;;1.57;0.70;;;19.80;59.20;;;;;;5094280;28;20850;-83
2024/02/24 06:18:46;;;;;;;1.60;0.70;;;19.70;59.80;;;;;;5094466;28;20436;-81
2024/02/24 06:21:12;;;;;;;1.30;0.60;;;19.70;59.20;;;;;;5094713;28;20801;-82
2024/02/24 06:23:40;;;;;;;1.47;0.70;;;19.80;59.20;;;;;;5094515;28;20431;-82
2024/02/24 06:26:07;;;;;;;1.40;0.60;;;19.70;59.20;;;;;;5094540;28;20438;-82
2024/02/24 06:28:35;;;;;;;1.50;0.77;;;19.70;59.20;;;;;;5094834;28;20441;-80
2024/02/24 06:31:02;;;;;;;2.13;0.90;;;19.70;59.20;;;;;;5093760;28;20471;-81
2024/02/24 06:33:28;;;;;;;1.30;0.70;;;19.70;59.10;;;;;;5093385;28;20470;-81
2024/02/24 06:35:55;;;;;;;1.47;0.70;;;19.70;59.10;;;;;;5093693;28;20438;-82
2024/02/24 06:38:22;;;;;;;1.40;0.70;;;19.70;59.70;;;;;;5093741;28;20432;-82
2024/02/24 06:40:50;;;;;;;1.60;0.70;;;19.70;59.20;;;;;;5093497;28;20436;-82
2024/02/24 06:43:17;;;;;;;1.40;0.70;;;19.70;59.20;;;;;;5093533;28;20439;-82
2024/02/24 06:45:44;;;;;;;1.50;0.80;;;19.70;59.10;;;;;;5093236;28;20838;-81
2024/02/24 06:48:13;;;;;;;1.40;0.70;;;19.70;59.70;;;;;;5093767;28;20438;-82
2024/02/24 06:50:40;;;;;;;1.40;0.77;;;19.70;59.20;;;;;;5093390;28;20443;-81
2024/02/24 06:53:06;;;;;;;1.40;0.70;;;19.70;59.20;;;;;;5093401;28;20431;-81
2024/02/24 06:55:33;;;;;;;1.30;0.70;;;19.70;59.20;;;;;;5093325;28;20443;-82
2024/02/24 06:58:01;;;;;;;1.57;0.80;;;19.70;59.20;;;;;;5094087;28;20462;-80
2024/02/24 07:00:29;;;;;;;1.33;0.63;;;19.70;59.10;;;;;;5095410;28;20450;-81
2024/02/24 07:02:56;;;;;;;1.30;0.70;;;19.70;59.10;;;;;;5093323;28;20810;-81
2024/02/24 07:05:23;;;;;;;1.30;0.70;;;19.70;59.20;;;;;;5093058;28;20570;-81
2024/02/24 07:07:49;;;;;;;1.40;0.60;;;19.70;59.20;;;;;;5093549;28;20862;-81
2024/02/24 07:10:16;;;;;;;1.50;0.80;;;19.70;59.10;;;;;;5097387;28;20441;-88
2024/02/24 07:12:45;;;;;;;1.40;0.70;;;19.70;59.20;;;;;;5097247;28;20431;-81
2024/02/24 07:15:13;;;;;;;1.37;0.70;;;19.70;59.20;;;;;;5097208;28;20535;-81
2024/02/24 07:17:39;;;;;;;1.50;0.70;;;19.70;59.20;;;;;;5097201;28;20442;-81
2024/02/24 07:20:07;;;;;;;1.47;0.77;;;19.70;59.20;;;;;;5097163;28;20439;-81
2024/02/24 07:22:34;;;;;;;1.83;0.67;;;19.70;59.20;;;;;;5097370;28;20435;-83
2024/02/24 07:25:01;;;;;;;1.40;0.70;;;19.70;59.20;;;;;;5097733;28;20489;-83
2024/02/24 07:27:28;;;;;;;1.40;0.70;;;19.70;59.20;;;;;;5097353;28;20450;-83
2024/02/24 07:29:55;;;;;;;1.50;0.67;;;19.70;59.20;;;;;;5096806;28;20439;-82
2024/02/24 07:32:23;;;;;;;1.40;0.70;;;19.70;59.20;;;;;;5097003;28;20474;-83
2024/02/24 07:34:50;;;;;;;1.40;0.70;;;19.70;59.80;;;;;;5097003;28;20427;-83
2024/02/24 07:37:17;;;;;;;1.60;0.73;;;19.70;59.20;;;;;;5096917;28;20505;-83
2024/02/24 07:39:44;;;;;;;1.40;0.70;;;19.70;59.20;;;;;;5096755;28;20518;-83
2024/02/24 07:42:11;;;;;;;1.50;0.80;;;19.70;59.20;;;;;;5096814;28;20465;-85
2024/02/24 07:44:38;;;;;;;1.43;0.70;;;19.70;59.20;;;;;;5096621;28;20478;-83
2024/02/24 07:47:06;;;;;;;1.40;0.70;;;19.70;59.20;;;;;;5096973;28;20438;-83
2024/02/24 07:49:35;;;;;;;1.53;0.83;;;19.70;59.20;;;;;;5096671;28;20446;-83
2024/02/24 07:52:02;;;;;;;1.40;0.70;;;19.70;59.20;;;;;;5096435;28;20447;-83
2024/02/24 07:54:29;;;;;;;1.90;0.80;;;19.70;59.20;;;;;;5096554;28;20440;-83
2024/02/24 07:56:56;;;;;;;1.37;0.60;;;19.70;59.20;;;;;;5096685;28;20438;-83
2024/02/24 07:59:22;;;;;;;1.50;0.70;;;19.70;59.30;;;;;;5096385;28;20842;-82
2024/02/24 08:01:49;;;;;;;1.37;0.67;;;19.70;59.20;;;;;;5096738;28;20466;-83
2024/02/24 08:04:16;;;;;;;1.40;0.70;;;19.70;59.80;;;;;;5096371;28;20475;-82
2024/02/24 08:06:44;;;;;;;1.40;0.70;;;19.70;59.20;;;;;;5096486;28;20431;-83
2024/02/24 08:09:14;;;;;;;1.40;0.70;;;19.70;59.20;;;;;;5096386;28;20442;-83
2024/02/24 08:11:41;;;;;;;1.40;0.80;;;19.70;59.20;;;;;;5096241;28;20506;-83
2024/02/24 08:14:08;;;;;;;1.40;0.70;;;19.70;59.20;;;;;;5095984;28;20470;-82
2024/02/24 08:16:35;;;;;;;1.40;0.70;;;19.70;59.20;;;;;;5096120;28;20436;-84
2024/02/24 08:19:02;;;;;;;1.30;0.70;;;19.70;59.80;;;;;;5095877;28;20439;-81
2024/02/24 08:21:31;;;;;;;1.40;0.70;;;19.70;59.20;;;;;;5095368;28;20435;-82
2024/02/24 08:23:59;;;;;;;1.33;0.60;;;19.70;59.20;;;;;;5095981;28;20812;-82
2024/02/24 08:26:26;;;;;;;1.40;0.70;;;19.70;59.20;;;;;;5095904;28;20567;-82
2024/02/24 08:28:53;;;;;;;1.40;0.60;;;19.70;59.20;;;;;;5096008;28;20439;-83
2024/02/24 08:31:19;;;;;;;1.40;0.60;;;19.70;59.20;;;;;;5095518;28;20550;-82
2024/02/24 08:33:46;;;;;;;1.40;0.70;;;19.70;59.20;;;;;;5095689;28;20439;-82
2024/02/24 08:36:16;;;;;;;1.77;0.70;;;19.70;59.30;;;;;;5095701;28;20442;-82
2024/02/24 08:38:44;;;;;;;1.50;0.70;;;19.70;59.30;;;;;;5095719;28;20431;-82
2024/02/24 08:41:12;;;;;;;1.67;0.80;;;19.70;59.30;;;;;;5095584;28;20994;-82
2024/02/24 08:43:40;;;;;;;2.47;0.70;;;19.70;59.30;;;;;;5095812;28;20526;-82
2024/02/24 08:46:06;;;;;;;1.30;0.60;;;19.70;59.20;;;;;;5095528;28;20968;-82
2024/02/24 08:48:34;;;;;;;1.40;0.70;;;19.70;59.30;;;;;;5095540;28;20465;-82
2024/02/24 08:51:01;;;;;;;1.40;0.70;;;19.70;59.80;;;;;;5095445;28;20531;-82
2024/02/24 08:53:27;;;;;;;1.30;0.60;;;19.70;59.20;;;;;;5095925;28;20522;-82
2024/02/24 08:55:54;;;;;;;1.40;0.70;;;19.70;59.20;;;;;;5095803;28;20440;-80
2024/02/24 08:58:22;;;;;;;1.30;0.70;;;19.70;59.20;;;;;;5114402;28;20873;-82
2024/02/24 09:00:54;;;;;;;1.30;0.60;;;19.70;59.20;;;;;;5113495;28;20475;-82
2024/02/24 09:03:20;;;;;;;1.60;0.60;;;19.70;59.20;;;;;;5095171;28;20455;-81
2024/02/24 09:05:47;;;;;;;1.97;0.80;;;19.70;59.80;;;;;;5094992;28;20483;-81
2024/02/24 09:08:14;;;;;;;1.40;0.70;;;19.70;59.20;;;;;;5094992;28;20944;-81
2024/02/24 09:10:41;;;;;;;1.50;0.70;;;19.70;59.20;;;;;;5095013;28;20785;-81
2024/02/24 09:13:09;;;;;;;1.40;0.63;;;19.70;59.20;;;;;;5094971;28;20442;-83
2024/02/24 09:15:37;;;;;;;1.30;0.60;;;19.70;59.20;;;;;;5095535;28;20474;-83
2024/02/24 09:18:07;;;;;;;1.40;0.60;;;19.70;59.10;;;;;;5094994;28;20435;-83
2024/02/24 09:20:35;;;;;;;1.40;0.63;;;19.70;59.20;;;;;;5094844;28;20463;-83
2024/02/24 09:23:02;;;;;;;1.40;0.70;;;19.70;59.20;;;;;;5094848;28;20432;-82
2024/02/24 09:25:28;;;;;;;1.40;0.70;;;19.70;59.20;;;;;;5094557;28;20817;-83
2024/02/24 09:27:55;;;;;;;1.60;0.80;;;19.70;59.20;;;;;;5094810;28;20458;-82
2024/02/24 09:30:24;;;;;;;1.33;0.67;;;19.70;59.20;;;;;;5094368;28;20463;-82
2024/02/24 09:32:53;;;;;;;1.77;0.77;;;19.70;59.30;;;;;;5093514;28;20452;-83
2024/02/24 09:35:20;;;;;;;1.30;0.60;;;19.70;59.20;;;;;;5094567;28;20439;-82
2024/02/24 09:37:47;;;;;;;1.40;0.70;;;19.70;59.20;;;;;;5094580;28;20447;-83
2024/02/24 09:40:15;;;;;;;1.40;0.70;;;19.70;59.20;;;;;;5094683;28;20829;-83
2024/02/24 09:42:41;;;;;;;1.30;0.60;;;19.70;59.30;;;;;;5094305;28;20434;-83
2024/02/24 09:45:12;;;;;;;1.30;0.60;;;19.70;59.30;;;;;;5094275;28;20551;-82
2024/02/24 09:47:41;;;;;;;1.47;0.70;;;19.70;59.30;;;;;;5094298;28;20458;-83
2024/02/24 09:50:10;;;;;;;2.03;0.80;;;19.60;59.20;;;;;;5094328;28;20822;-82
2024/02/24 09:52:38;;;;;;;1.43;0.70;;;19.70;59.30;;;;;;5094212;28;20442;-82
2024/02/24 09:55:05;;;;;;;1.30;0.60;;;19.70;59.30;;;;;;5094263;28;20850;-82
2024/02/24 09:57:35;;;;;;;1.50;0.70;;;19.60;59.20;;;;;;5094209;28;20864;-82
2024/02/24 10:00:03;;;;;;;1.33;0.63;;;19.70;59.30;;;;;;5094123;28;20444;-90
2024/02/24 10:02:30;;;;;;;1.70;0.80;;;19.60;59.20;;;;;;5093938;28;20456;-86
2024/02/24 10:04:58;;;;;;;1.70;0.77;;;19.60;59.30;;;;;;5093944;28;20471;-82
2024/02/24 10:07:29;;;;;;;2.73;0.90;;;19.70;59.40;;;;;;5094045;28;20531;-91
2024/02/24 10:09:56;;;;;;;2.23;1.83;;;19.60;59.20;;;;;;5094062;28;20458;-82
2024/02/24 10:12:23;;;;;;;1.30;0.70;;;19.60;59.20;;;;;;5093824;28;20433;-89
2024/02/24 10:14:49;;;;;;;1.80;0.70;;;19.60;59.20;;;;;;5093933;28;20515;-81
2024/02/24 10:17:16;;;;;;;1.40;0.70;;;19.60;59.20;;;;;;5093860;28;20438;-82
2024/02/24 10:19:43;;;;;;;1.40;0.70;;;19.70;59.80;;;;;;5093745;28;20432;-82
2024/02/24 10:22:10;;;;;;;1.30;0.60;;;19.60;59.20;;;;;;5093789;28;20526;-81
2024/02/24 10:24:38;;;;;;;1.80;0.77;;;19.60;59.10;;;;;;5093570;28;21012;-90
2024/02/24 10:27:06;;;;;;;1.33;0.63;;;19.70;59.20;;;;;;5094866;28;20506;-81
2024/02/24 10:29:33;;;;;;;1.40;0.70;;;19.70;59.20;;;;;;5094428;28;20795;-82
2024/02/24 10:32:00;;;;;;;1.80;0.77;;;19.70;59.20;;;;;;5093320;28;20481;-81
2024/02/24 10:34:28;;;;;;;1.50;0.77;;;19.70;59.10;;;;;;5093568;28;20610;-81
2024/02/24 10:36:57;;;;;;;1.87;0.80;;;19.70;59.10;;;;;;5093479;28;20863;-82
2024/02/24 10:39:26;;;;;;;1.60;0.70;;;19.70;59.60;;;;;;5093471;28;20891;-82
2024/02/24 10:41:55;;;;;;;1.37;0.70;;;19.70;58.90;;;;;;5093569;28;20435;-82
2024/02/24 10:44:22;;;;;;;1.50;0.70;;;19.70;58.90;;;;;;5093113;28;20530;-83
2024/02/24 10:46:49;;;;;;;1.40;0.70;;;19.80;58.80;;;;;;5093444;28;21001;-83
2024/02/24 10:49:16;;;;;;;1.40;0.70;;;19.80;58.80;;;;;;5093712;28;20463;-83
2024/02/24 10:51:46;;;;;;;1.40;0.70;;;19.90;59.00;;;;;;5093280;28;20526;-83
2024/02/24 10:54:17;;;;;;;1.40;0.70;;;19.90;59.10;;;;;;5093388;28;20435;-83
2024/02/24 10:56:44;;;;;;;1.40;0.70;;;19.90;58.70;;;;;;5093440;28;20527;-90
2024/02/24 10:59:12;;;;;;;1.40;0.80;;;20.00;58.70;;;;;;5093369;28;20434;-83
2024/02/24 11:01:43;;;;;;;1.37;0.67;;;20.00;58.70;;;;;;5093138;28;20538;-83
2024/02/24 11:04:12;;;;;;;1.30;0.70;;;20.10;58.80;;;;;;5093141;28;20922;-83
2024/02/24 11:06:49;;;;;;;1.40;0.70;;;20.10;58.80;;;;;;5093107;28;20913;-82
2024/02/24 11:09:16;;;;;;;1.70;0.60;;;20.10;58.40;;;;;;5093357;28;20441;-82
2024/02/24 11:11:43;;;;;;;1.30;0.60;;;20.20;58.30;;;;;;5093398;28;20431;-82
2024/02/24 11:14:11;;;;;;;1.30;0.70;;;20.20;58.20;;;;;;5093273;28;20435;-82
2024/02/24 11:16:41;;;;;;;1.70;0.60;;;20.20;58.20;;;;;;5093377;28;20471;-81
2024/02/24 11:19:10;;;;;;;1.40;0.70;;;20.20;58.50;;;;;;5093086;28;20435;-82
2024/02/24 11:21:59;;;;;;;1.50;0.70;;;20.10;58.60;;;;;;5093093;28;20439;-82
2024/02/24 11:24:31;;;;;;;1.60;0.70;;;20.20;58.70;;;;;;5093202;28;21019;-82
2024/02/24 11:26:58;;;;;;;1.37;0.73;;;20.20;58.60;;;;;;5093341;28;20482;-82
2024/02/24 11:29:27;;;;;;;1.40;0.70;;;20.20;58.60;;;;;;5093013;28;20437;-82
2024/02/24 11:32:05;;;;;;;1.57;0.90;;;20.20;58.80;;;;;;5093332;28;20483;-82
2024/02/24 11:34:34;;;;;;;2.27;0.93;;;20.30;58.90;;;;;;5100264;28;20531;-82
2024/02/24 11:37:01;;;;;;;1.40;0.70;;;20.30;59.40;;;;;;5098723;28;20529;-82
2024/02/24 11:39:29;;;;;;;1.70;0.80;;;20.30;58.90;;;;;;5097310;28;20443;-80
2024/02/24 11:41:56;;;;;;;1.40;0.70;;;20.30;58.80;;;;;;5093074;28;20428;-82
2024/02/24 11:44:23;;;;;;;1.50;0.90;;;20.40;58.80;;;;;;5093289;28;20526;-82
2024/02/24 11:46:52;;;;;;;1.47;0.60;;;20.40;58.80;;;;;;5093127;28;20489;-81
2024/02/24 11:49:19;;;;;;;1.60;0.80;;;20.40;58.60;;;;;;5092856;28;20514;-81
2024/02/24 11:51:47;;;;;;;1.40;0.70;;;20.40;58.50;;;;;;5092797;28;20438;-81
2024/02/24 11:54:14;;;;;;;1.40;0.70;;;20.40;58.50;;;;;;5092841;28;20447;-89
2024/02/24 11:56:41;;;;;;;1.50;0.70;;;20.40;58.50;;;;;;5095922;28;20436;-81
2024/02/24 11:59:09;;;;;;;1.40;0.70;;;20.40;58.60;;;;;;5114598;28;20484;-81
2024/02/24 12:01:37;;;;;;;1.40;0.70;;;20.30;58.60;;;;;;5115514;28;20482;-81
2024/02/24 12:04:06;;;;;;;1.40;0.70;;;20.30;58.60;;;;;;5098606;28;20439;-81
2024/02/24 12:06:33;;;;;;;1.63;0.80;;;20.30;58.50;;;;;;5096349;28;20493;-82
2024/02/24 12:09:01;;;;;;;1.67;0.70;;;20.30;58.60;;;;;;5096267;28;20435;-82
2024/02/24 12:11:28;;;;;;;1.90;0.80;;;20.30;58.80;;;;;;5096238;28;20791;-87
2024/02/24 12:13:55;;;;;;;1.50;0.80;;;20.30;58.90;;;;;;5096294;28;20830;-81
2024/02/24 12:16:23;;;;;;;1.50;0.60;;;20.40;58.80;;;;;;5096271;28;20526;-81
2024/02/24 12:18:49;;;;;;;1.50;0.70;;;20.40;58.70;;;;;;5096341;28;20439;-81
2024/02/24 12:21:18;;;;;;;1.50;0.80;;;20.40;58.70;;;;;;5096071;28;20438;-81
2024/02/24 12:23:45;;;;;;;1.30;0.60;;;20.40;58.50;;;;;;5095858;28;20468;-83
2024/02/24 12:26:16;;;;;;;1.80;0.63;;;20.30;58.50;;;;;;5095982;28;20475;-84
2024/02/24 12:28:45;;;;;;;1.43;0.70;;;20.30;58.50;;;;;;5096162;28;20438;-87
2024/02/24 12:31:13;;;;;;;1.33;0.70;;;20.30;58.50;;;;;;5095505;28;20554;-83
2024/02/24 12:33:42;;;;;;;1.30;0.60;;;20.30;58.40;;;;;;5096013;28;20522;-83
2024/02/24 12:36:11;;;;;;;1.40;0.60;;;20.30;58.20;;;;;;5096184;28;20453;-84
2024/02/24 12:38:39;;;;;;;1.33;0.60;;;20.30;58.40;;;;;;5095677;28;20522;-83
2024/02/24 12:41:10;;;;;;;1.40;0.70;;;20.30;58.60;;;;;;5095574;28;20519;-83
2024/02/24 12:43:38;;;;;;;1.40;0.70;;;20.30;58.30;;;;;;5095717;28;20853;-84
2024/02/24 12:46:06;;;;;;;1.50;0.80;;;20.20;58.50;;;;;;5095626;28;20840;-89
2024/02/24 12:48:33;;;;;;;1.67;0.70;;;20.20;58.70;;;;;;5096278;28;20459;-82